Terminal Aerodrome Forecast
Issued by NWS St Louis, MO

Home | Current Version | Previous Version | Text Only | Print | Product List | Glossary On
Versions: 1 2 3 4 5 6 7 8 9 10 11 12 13 14 15 16 17 18 19
050
FTUS43 KLSX 251120
TAFCOU
TAF
KCOU 251120Z 2512/2612 15007KT P6SM BKN080
     FM251700 13007KT 6SM -SHRA VCTS OVC050CB
     FM252100 VRB04KT P6SM OVC040
     FM260600 27008KT P6SM OVC020=

USA.gov is the U.S. government's official web portal to all federal, state and local government web resources and services.